createdAt,value
2023-05-19T00:01:57.416Z,3.00
2023-05-19T00:04:25.112Z,3.33
2023-05-19T00:06:54.446Z,6.00
2023-05-19T00:09:22.912Z,3.67
2023-05-19T00:11:50.841Z,6.75
2023-05-19T00:14:18.744Z,2.33
2023-05-19T00:16:46.496Z,3.00
2023-05-19T00:19:14.830Z,4.00
2023-05-19T00:21:41.990Z,3.00
2023-05-19T00:24:10.043Z,3.00
2023-05-19T00:26:37.046Z,4.00
2023-05-19T00:29:22.848Z,4.50
2023-05-19T00:31:50.470Z,3.00
2023-05-19T00:34:19.664Z,2.00
2023-05-19T00:36:46.782Z,4.50
2023-05-19T00:39:14.484Z,4.50
2023-05-19T00:41:42.007Z,4.00
2023-05-19T00:44:09.019Z,3.50
2023-05-19T00:46:36.144Z,3.50
2023-05-19T00:49:03.022Z,3.25
2023-05-19T00:51:44.227Z,3.00
2023-05-19T00:54:11.900Z,3.50
2023-05-19T00:56:39.572Z,3.25
2023-05-19T00:59:07.310Z,4.00
2023-05-19T01:01:34.358Z,3.00
2023-05-19T01:04:01.686Z,3.00
2023-05-19T01:06:29.371Z,4.00
2023-05-19T01:08:57.589Z,3.00
2023-05-19T01:11:24.472Z,1.00
2023-05-19T01:13:51.697Z,3.25
2023-05-19T01:16:29.532Z,3.00
2023-05-19T01:19:10.568Z,3.00
2023-05-19T01:22:09.095Z,3.00
2023-05-19T01:25:07.861Z,3.00
2023-05-19T01:28:15.963Z,4.00
2023-05-19T01:30:52.485Z,2.50
2023-05-19T01:33:23.405Z,3.25
2023-05-19T01:35:53.712Z,3.25
2023-05-19T01:38:22.389Z,6.00
2023-05-19T01:40:51.403Z,3.00
2023-05-19T01:43:23.950Z,3.00
2023-05-19T01:45:53.325Z,3.00
2023-05-19T01:48:23.129Z,4.00
2023-05-19T01:50:50.455Z,3.00
2023-05-19T01:53:17.440Z,6.00
2023-05-19T01:55:52.197Z,3.00
2023-05-19T01:58:33.197Z,2.00
2023-05-19T02:01:16.478Z,4.00
2023-05-19T02:04:06.886Z,4.00
2023-05-19T02:06:45.975Z,3.50
2023-05-19T02:09:20.749Z,4.00
2023-05-19T02:11:55.884Z,3.50
2023-05-19T02:14:33.606Z,3.50
2023-05-19T02:17:05.171Z,3.33
2023-05-19T02:19:34.268Z,3.00
2023-05-19T02:22:01.251Z,6.00
2023-05-19T02:24:28.150Z,4.00
2023-05-19T02:29:50.829Z,4.00
2023-05-19T02:32:20.393Z,3.00
2023-05-19T02:34:47.974Z,1.00
2023-05-19T02:37:16.588Z,4.00
2023-05-19T02:39:44.580Z,4.00
2023-05-19T02:42:12.526Z,3.25
2023-05-19T02:44:39.670Z,4.00
2023-05-19T02:47:06.690Z,4.00
2023-05-19T02:49:35.058Z,3.67
2023-05-19T02:52:02.265Z,3.00
2023-05-19T02:54:29.346Z,4.00
2023-05-19T02:56:56.463Z,3.75
2023-05-19T02:59:25.472Z,4.00
2023-05-19T03:01:56.445Z,3.67
2023-05-19T03:04:23.764Z,3.00
2023-05-19T03:06:52.657Z,4.00
2023-05-19T03:13:02.904Z,3.00
2023-05-19T03:15:57.793Z,3.00
2023-05-19T03:18:26.386Z,4.00
2023-05-19T03:20:54.539Z,3.50
2023-05-19T03:23:22.882Z,3.00
2023-05-19T03:25:49.907Z,3.00
2023-05-19T03:28:16.820Z,3.00
2023-05-19T03:30:43.821Z,3.00
2023-05-19T03:33:18.704Z,4.00
2023-05-19T03:35:45.979Z,3.50
2023-05-19T03:38:13.615Z,6.00
2023-05-19T03:40:48.606Z,4.00
2023-05-19T03:43:15.573Z,1.00
2023-05-19T03:45:48.061Z,2.50
2023-05-19T03:48:33.428Z,3.00
2023-05-19T03:51:20.806Z,6.50
2023-05-19T03:53:50.617Z,5.00
2023-05-19T03:56:20.487Z,4.00
2023-05-19T03:58:47.633Z,4.00
2023-05-19T04:01:16.067Z,3.75
2023-05-19T04:03:43.029Z,4.00
2023-05-19T04:06:10.095Z,3.00
2023-05-19T04:08:37.002Z,3.25
2023-05-19T04:11:04.262Z,4.00
2023-05-19T04:13:33.712Z,3.00
2023-05-19T04:16:00.889Z,7.25
2023-05-19T04:18:29.242Z,4.00
2023-05-19T04:20:56.452Z,4.50
2023-05-19T04:23:23.460Z,3.75
2023-05-19T04:25:51.308Z,1.50
2023-05-19T04:28:18.295Z,3.00
2023-05-19T04:30:46.850Z,5.00
2023-05-19T04:33:14.731Z,3.00
2023-05-19T04:35:42.979Z,4.00
2023-05-19T04:38:11.677Z,4.00
2023-05-19T04:40:39.014Z,4.50
2023-05-19T04:43:06.629Z,4.75
2023-05-19T04:45:33.779Z,0.00
2023-05-19T04:48:04.514Z,3.00
2023-05-19T04:50:31.701Z,7.75
2023-05-19T04:52:59.431Z,6.25
2023-05-19T04:55:28.723Z,9.75
2023-05-19T04:57:57.481Z,3.67
2023-05-19T05:00:24.885Z,2.00
2023-05-19T05:03:05.942Z,3.00
2023-05-19T05:05:35.369Z,2.25
2023-05-19T05:08:02.703Z,0.25
2023-05-19T05:10:34.429Z,4.75
2023-05-19T05:13:02.674Z,4.00
2023-05-19T05:15:31.065Z,2.50
2023-05-19T05:18:02.100Z,3.50
2023-05-19T05:20:34.179Z,4.00
2023-05-19T05:23:02.450Z,4.00
2023-05-19T05:25:32.398Z,2.00
2023-05-19T05:27:59.587Z,4.25
2023-05-19T05:30:26.623Z,2.00
2023-05-19T05:32:54.149Z,1.50
2023-05-19T05:35:33.984Z,4.00
2023-05-19T05:38:01.257Z,2.00
2023-05-19T05:40:29.838Z,2.00
2023-05-19T05:42:57.158Z,4.00
2023-05-19T05:45:26.045Z,4.00
2023-05-19T05:47:54.940Z,3.25
2023-05-19T05:50:23.915Z,2.00
2023-05-19T05:52:56.912Z,2.50
2023-05-19T05:55:25.943Z,4.00
2023-05-19T05:57:52.902Z,2.00
2023-05-19T06:00:21.499Z,2.00
2023-05-19T06:02:52.573Z,2.50
2023-05-19T06:05:20.561Z,2.00
2023-05-19T06:07:48.740Z,3.40
2023-05-19T06:10:23.746Z,2.20
2023-05-19T06:12:52.984Z,2.00
2023-05-19T06:15:23.441Z,3.00
2023-05-19T06:18:07.567Z,2.00
2023-05-19T06:20:34.681Z,3.00
2023-05-19T06:23:03.300Z,3.00
2023-05-19T06:25:31.786Z,1.60
2023-05-19T06:27:58.887Z,2.20
2023-05-19T06:30:25.936Z,3.60
2023-05-19T06:33:12.046Z,1.60
2023-05-19T06:35:39.030Z,2.00
2023-05-19T06:38:06.456Z,3.20
2023-05-19T06:40:35.995Z,2.20
2023-05-19T06:43:03.687Z,3.00
2023-05-19T06:45:53.493Z,4.80
2023-05-19T06:48:22.501Z,4.20
2023-05-19T06:50:49.882Z,2.80
2023-05-19T06:53:19.944Z,2.00
2023-05-19T06:55:58.139Z,2.40
2023-05-19T06:58:27.830Z,2.00
2023-05-19T07:00:55.434Z,1.80
2023-05-19T07:03:24.762Z,3.00
2023-05-19T07:05:55.512Z,3.00
2023-05-19T07:08:22.725Z,3.00
2023-05-19T07:10:51.108Z,3.00
2023-05-19T07:13:17.970Z,2.80
2023-05-19T07:15:45.966Z,3.00
2023-05-19T07:18:13.791Z,3.00
2023-05-19T07:20:41.686Z,1.00
2023-05-19T07:23:09.451Z,2.00
2023-05-19T07:25:36.937Z,2.00
2023-05-19T07:28:06.263Z,3.75
2023-05-19T07:30:33.953Z,4.00
2023-05-19T07:33:00.995Z,2.00
2023-05-19T07:35:28.939Z,3.50
2023-05-19T07:37:55.948Z,2.00
2023-05-19T07:40:22.942Z,2.00
2023-05-19T07:42:50.208Z,2.50
2023-05-19T07:45:18.845Z,5.00
2023-05-19T07:47:45.897Z,2.00
2023-05-19T07:50:12.839Z,3.00
2023-05-19T07:52:40.083Z,1.75
2023-05-19T07:55:07.226Z,4.00
2023-05-19T07:57:34.169Z,4.25
2023-05-19T08:00:01.083Z,4.50
2023-05-19T08:02:29.470Z,0.50
2023-05-19T08:04:56.537Z,2.00
2023-05-19T08:07:23.630Z,4.00
2023-05-19T08:09:50.549Z,3.50
2023-05-19T08:12:17.409Z,2.00
2023-05-19T08:14:44.763Z,3.00
2023-05-19T08:17:11.721Z,2.00
2023-05-19T08:19:40.004Z,1.00
2023-05-19T08:22:08.076Z,1.50
2023-05-19T08:24:36.877Z,3.00
2023-05-19T08:27:04.639Z,4.25
2023-05-19T08:29:32.138Z,2.00
2023-05-19T08:31:59.044Z,3.00
2023-05-19T08:34:27.219Z,3.50
2023-05-19T08:36:56.217Z,5.00
2023-05-19T08:39:23.113Z,2.50
2023-05-19T08:41:52.600Z,4.50
2023-05-19T08:44:20.068Z,1.75
2023-05-19T08:46:48.136Z,5.00
2023-05-19T08:49:25.488Z,4.00
2023-05-19T08:52:06.247Z,2.00
2023-05-19T08:54:43.269Z,4.00
2023-05-19T08:57:10.935Z,4.00
2023-05-19T08:59:40.850Z,4.50
2023-05-19T09:02:13.191Z,2.50
2023-05-19T09:04:41.212Z,3.50
2023-05-19T09:07:09.668Z,4.00
2023-05-19T09:09:36.715Z,1.50
2023-05-19T09:12:04.564Z,3.00
2023-05-19T09:14:32.994Z,4.75
2023-05-19T09:17:02.060Z,4.00
2023-05-19T09:19:29.518Z,8.33
2023-05-19T09:22:00.288Z,5.00
2023-05-19T09:24:29.036Z,4.50
2023-05-19T09:26:57.732Z,4.00
2023-05-19T09:29:26.173Z,5.00
2023-05-19T09:31:55.434Z,1.25
2023-05-19T09:34:22.567Z,4.25
2023-05-19T09:36:49.748Z,2.50
2023-05-19T09:39:17.745Z,2.00
2023-05-19T09:41:46.591Z,5.50
2023-05-19T09:44:21.182Z,3.50
2023-05-19T09:46:49.748Z,5.50
2023-05-19T09:49:21.412Z,4.50
2023-05-19T09:51:53.970Z,4.75
2023-05-19T09:54:22.569Z,4.00
2023-05-19T09:56:57.706Z,3.00
2023-05-19T09:59:25.794Z,4.25
2023-05-19T10:01:55.220Z,4.00
2023-05-19T10:04:23.638Z,4.00
2023-05-19T10:06:51.110Z,3.50
2023-05-19T10:09:18.560Z,4.00
2023-05-19T10:11:46.154Z,4.50
2023-05-19T10:14:15.872Z,4.00
2023-05-19T10:16:44.381Z,3.50
2023-05-19T10:19:13.972Z,5.25
2023-05-19T10:22:19.070Z,6.00
2023-05-19T10:24:46.319Z,3.50
2023-05-19T10:27:19.948Z,2.00
2023-05-19T10:29:52.253Z,5.00
2023-05-19T10:32:26.697Z,6.00
2023-05-19T10:35:28.288Z,5.00
2023-05-19T10:38:09.536Z,1.00
2023-05-19T10:40:53.343Z,5.00
2023-05-19T10:43:37.142Z,3.00
2023-05-19T10:46:06.309Z,4.75
2023-05-19T10:48:35.227Z,2.50
2023-05-19T10:51:03.100Z,7.00
2023-05-19T10:53:32.070Z,4.25
2023-05-19T10:56:02.324Z,4.00
2023-05-19T10:58:38.683Z,6.00
2023-05-19T11:01:14.214Z,4.00
2023-05-19T11:03:49.973Z,2.00
2023-05-19T11:06:35.081Z,4.00
2023-05-19T11:09:13.449Z,6.00
2023-05-19T11:11:48.136Z,5.00
2023-05-19T11:14:18.311Z,4.25
2023-05-19T11:16:50.203Z,4.75
2023-05-19T11:19:27.479Z,5.00
2023-05-19T11:21:55.594Z,7.00
2023-05-19T11:24:40.333Z,5.50
2023-05-19T11:27:24.543Z,5.50
2023-05-19T11:29:52.370Z,4.50
2023-05-19T11:32:22.976Z,3.00
2023-05-19T11:34:50.284Z,2.50
2023-05-19T11:37:17.535Z,2.00
2023-05-19T11:39:46.891Z,4.75
2023-05-19T11:42:16.524Z,4.50
2023-05-19T11:44:44.391Z,7.25
2023-05-19T11:47:24.974Z,4.00
2023-05-19T11:49:52.274Z,5.00
2023-05-19T11:52:22.986Z,3.50
2023-05-19T11:54:50.662Z,5.50
2023-05-19T11:58:35.700Z,5.25
2023-05-19T12:01:04.506Z,5.00
2023-05-19T12:03:32.874Z,4.00
2023-05-19T12:06:00.240Z,8.00
2023-05-19T12:08:27.260Z,5.25
2023-05-19T12:10:54.321Z,7.00
2023-05-19T12:13:22.751Z,5.00
2023-05-19T12:15:51.076Z,4.75
2023-05-19T12:18:19.318Z,4.25
2023-05-19T12:20:47.867Z,2.50
2023-05-19T12:23:14.872Z,1.50
2023-05-19T12:26:34.993Z,2.50
2023-05-19T12:29:04.410Z,2.00
2023-05-19T12:31:31.405Z,0.00
2023-05-19T12:33:58.631Z,4.00
2023-05-19T12:36:27.238Z,4.25
2023-05-19T12:38:56.414Z,5.50
2023-05-19T12:41:50.513Z,2.50
2023-05-19T12:44:17.742Z,4.75
2023-05-19T12:46:44.776Z,7.00
2023-05-19T12:49:12.050Z,4.00
2023-05-19T12:51:40.571Z,4.50
2023-05-19T12:54:07.749Z,5.00
2023-05-19T12:56:34.998Z,5.25
2023-05-19T12:59:01.941Z,4.50
2023-05-19T13:03:56.935Z,4.00
2023-05-19T13:06:23.920Z,4.00
2023-05-19T13:08:52.171Z,1.75
2023-05-19T13:11:19.402Z,4.25
2023-05-19T13:13:46.255Z,2.00
2023-05-19T13:16:35.648Z,4.00
2023-05-19T13:19:03.276Z,2.50
2023-05-19T13:21:30.233Z,4.00
2023-05-19T13:23:58.719Z,4.25
2023-05-19T13:26:26.777Z,4.00
2023-05-19T13:28:53.716Z,3.00
2023-05-19T13:31:49.405Z,2.00
2023-05-19T13:34:16.428Z,3.75
2023-05-19T13:36:43.409Z,4.50
2023-05-19T13:39:37.736Z,1.25
2023-05-19T13:42:05.316Z,6.00
2023-05-19T13:44:32.798Z,5.00
2023-05-19T13:46:59.800Z,5.50
2023-05-19T13:49:27.269Z,4.25
2023-05-19T13:51:57.504Z,6.00
2023-05-19T13:54:24.513Z,4.50
2023-05-19T13:56:53.579Z,3.00
2023-05-19T13:59:21.280Z,7.75
2023-05-19T14:01:48.280Z,4.75
2023-05-19T14:04:18.562Z,3.00
2023-05-19T14:06:46.539Z,5.75
2023-05-19T14:09:13.495Z,5.00
2023-05-19T14:11:40.421Z,5.25
2023-05-19T14:14:12.625Z,7.50
2023-05-19T14:16:45.362Z,4.75
2023-05-19T14:19:13.352Z,4.00
2023-05-19T14:21:40.549Z,4.00
2023-05-19T14:24:07.620Z,4.00
2023-05-19T14:26:35.045Z,2.50
2023-05-19T14:29:04.698Z,6.67
2023-05-19T14:31:34.272Z,18.75
2023-05-19T14:34:02.833Z,5.00
2023-05-19T14:36:30.404Z,1.00
2023-05-19T14:38:57.357Z,5.25
2023-05-19T14:41:24.474Z,20.00
2023-05-19T14:43:51.608Z,11.50
2023-05-19T14:46:18.584Z,5.00
2023-05-19T14:48:46.761Z,6.75
2023-05-19T14:51:14.346Z,5.00
2023-05-19T14:53:41.259Z,3.00
2023-05-19T14:56:33.760Z,4.00
2023-05-19T14:59:00.628Z,5.25
2023-05-19T15:01:27.529Z,2.00
2023-05-19T15:04:04.859Z,24.25
2023-05-19T15:06:35.237Z,26.00
2023-05-19T15:09:27.085Z,16.00
2023-05-19T15:11:54.335Z,17.75
2023-05-19T15:14:22.402Z,2.00
2023-05-19T15:16:49.310Z,5.00
2023-05-19T15:19:17.955Z,5.75
2023-05-19T15:21:44.831Z,3.25
2023-05-19T15:24:11.867Z,2.00
2023-05-19T15:26:38.965Z,3.25
2023-05-19T15:29:56.959Z,5.00
2023-05-19T15:32:24.725Z,4.50
2023-05-19T15:34:53.444Z,4.25
2023-05-19T15:37:20.540Z,3.00
2023-05-19T15:39:47.439Z,2.00
2023-05-19T15:42:24.648Z,3.00
2023-05-19T15:44:52.704Z,4.00
2023-05-19T15:47:19.668Z,5.00
2023-05-19T15:49:46.834Z,3.25
2023-05-19T15:52:15.109Z,3.25
2023-05-19T15:54:42.005Z,2.80
2023-05-19T15:57:09.396Z,3.00
2023-05-19T15:59:36.336Z,5.25
2023-05-19T16:02:03.709Z,10.25
2023-05-19T16:04:30.925Z,5.75
2023-05-19T16:06:57.872Z,4.25
2023-05-19T16:09:26.369Z,3.25
2023-05-19T16:11:53.809Z,3.00
2023-05-19T16:14:46.548Z,2.25
2023-05-19T16:17:13.618Z,2.20
2023-05-19T16:19:41.104Z,3.25
2023-05-19T16:22:08.141Z,1.80
2023-05-19T16:24:37.501Z,2.60
2023-05-19T16:27:05.444Z,2.25
2023-05-19T16:29:32.359Z,2.00
2023-05-19T16:31:59.352Z,4.00
2023-05-19T16:34:27.489Z,2.00
2023-05-19T16:36:56.160Z,2.00
2023-05-19T16:39:24.839Z,2.50
2023-05-19T16:41:53.228Z,2.75
2023-05-19T16:44:20.885Z,4.50
2023-05-19T16:46:47.922Z,2.00
2023-05-19T16:49:14.879Z,2.40
2023-05-19T16:51:41.963Z,2.75
2023-05-19T16:54:09.084Z,2.75
2023-05-19T16:56:36.028Z,1.20
2023-05-19T16:59:04.348Z,2.00
2023-05-19T17:01:31.694Z,2.00
2023-05-19T17:03:58.770Z,5.00
2023-05-19T17:06:26.572Z,17.00
2023-05-19T17:08:53.583Z,3.00
2023-05-19T17:11:20.735Z,2.00
2023-05-19T17:13:48.051Z,3.80
2023-05-19T17:16:16.887Z,2.00
2023-05-19T17:18:45.044Z,2.20
2023-05-19T17:21:12.004Z,3.00
2023-05-19T17:23:38.970Z,3.20
2023-05-19T17:26:06.157Z,2.60
2023-05-19T17:28:33.434Z,2.40
2023-05-19T17:31:00.601Z,3.00
2023-05-19T17:33:29.363Z,2.00
2023-05-19T17:35:56.458Z,1.00
2023-05-19T17:38:23.545Z,3.00
2023-05-19T17:40:50.499Z,2.00
2023-05-19T17:43:17.889Z,5.00
2023-05-19T17:45:44.838Z,5.00
2023-05-19T17:48:11.932Z,3.00
2023-05-19T17:50:40.352Z,3.00
2023-05-19T17:53:08.367Z,2.20
2023-05-19T17:55:36.577Z,2.00
2023-05-19T17:58:04.189Z,2.20
2023-05-19T18:00:31.869Z,3.00
2023-05-19T18:02:59.788Z,4.50
2023-05-19T18:05:28.930Z,3.20
2023-05-19T18:08:00.057Z,4.50
2023-05-19T18:10:27.947Z,4.50
2023-05-19T18:12:54.986Z,5.75
2023-05-19T18:15:22.266Z,5.00
2023-05-19T18:17:49.517Z,5.00
2023-05-19T18:20:16.917Z,4.25
2023-05-19T18:22:44.056Z,3.00
2023-05-19T18:25:13.195Z,6.00
2023-05-19T18:27:40.127Z,5.00
2023-05-19T18:30:08.449Z,4.75
2023-05-19T18:32:36.111Z,6.00
2023-05-19T18:35:04.534Z,4.00
2023-05-19T18:37:31.568Z,5.50
2023-05-19T18:39:59.942Z,6.00
2023-05-19T18:42:29.488Z,5.75
2023-05-19T18:44:57.126Z,6.00
2023-05-19T18:47:24.118Z,5.25
2023-05-19T18:49:51.291Z,6.50
2023-05-19T18:52:20.809Z,6.50
2023-05-19T18:54:47.941Z,4.25
2023-05-19T18:57:15.278Z,8.75
2023-05-19T18:59:43.700Z,1.50
2023-05-19T19:02:10.824Z,6.00
2023-05-19T19:04:38.043Z,6.25
2023-05-19T19:07:05.830Z,7.50
2023-05-19T19:09:35.271Z,7.75
2023-05-19T19:12:02.932Z,7.25
2023-05-19T19:14:29.867Z,5.25
2023-05-19T19:16:58.360Z,5.00
2023-05-19T19:19:28.533Z,4.25
2023-05-19T19:21:55.708Z,4.50
2023-05-19T19:24:22.681Z,7.75
2023-05-19T19:26:50.321Z,6.00
2023-05-19T19:29:17.541Z,4.25
2023-05-19T19:31:44.568Z,5.50
2023-05-19T19:34:16.244Z,5.00
2023-05-19T19:36:45.816Z,4.00
2023-05-19T19:39:14.652Z,4.25
2023-05-19T19:41:41.859Z,4.00
2023-05-19T19:44:09.018Z,1.50
2023-05-19T19:46:39.468Z,7.00
2023-05-19T19:49:07.713Z,7.00
2023-05-19T19:51:39.165Z,4.75
2023-05-19T19:54:06.310Z,6.50
2023-05-19T19:56:33.343Z,7.50
2023-05-19T19:59:00.696Z,7.50
2023-05-19T20:01:28.138Z,9.00
2023-05-19T20:03:56.340Z,5.00
2023-05-19T20:06:23.670Z,7.25
2023-05-19T20:08:52.027Z,7.00
2023-05-19T20:11:41.785Z,12.00
2023-05-19T20:14:59.426Z,2.50
2023-05-19T20:17:26.992Z,7.00
2023-05-19T20:19:55.188Z,5.25
2023-05-19T20:22:22.288Z,4.25
2023-05-19T20:24:51.309Z,7.00
2023-05-19T20:27:18.910Z,6.75
2023-05-19T20:29:45.778Z,7.00
2023-05-19T20:32:13.535Z,7.00
2023-05-19T20:34:40.472Z,8.25
2023-05-19T20:37:07.548Z,6.50
2023-05-19T20:39:34.762Z,7.25
2023-05-19T20:42:03.104Z,8.00
2023-05-19T20:44:30.187Z,6.50
2023-05-19T20:46:57.349Z,5.75
2023-05-19T20:49:28.616Z,8.25
2023-05-19T20:51:56.781Z,7.25
2023-05-19T20:54:23.964Z,6.50
2023-05-19T20:56:53.132Z,8.25
2023-05-19T20:59:21.482Z,8.50
2023-05-19T21:01:48.948Z,10.50
2023-05-19T21:04:16.017Z,7.75
2023-05-19T21:06:42.937Z,7.00
2023-05-19T21:09:10.181Z,9.00
2023-05-19T21:11:38.209Z,10.50
2023-05-19T21:14:07.567Z,8.00
2023-05-19T21:16:36.044Z,7.25
2023-05-19T21:19:02.951Z,8.00
2023-05-19T21:21:29.886Z,9.00
2023-05-19T21:23:56.833Z,9.25
2023-05-19T21:26:23.965Z,8.00
2023-05-19T21:28:51.131Z,10.00
2023-05-19T21:31:18.194Z,7.75
2023-05-19T21:33:46.624Z,8.67
2023-05-19T21:36:13.488Z,12.00
2023-05-19T21:38:40.624Z,8.50
2023-05-19T21:41:07.557Z,7.25
2023-05-19T21:43:34.752Z,7.00
2023-05-19T21:46:01.694Z,8.00
2023-05-19T21:48:28.970Z,5.00
2023-05-19T21:50:57.288Z,10.25
2023-05-19T21:53:24.628Z,7.50
2023-05-19T21:55:51.535Z,8.00
2023-05-19T21:58:18.483Z,4.75
2023-05-19T22:00:49.088Z,7.25
2023-05-19T22:03:16.141Z,7.75
2023-05-19T22:05:48.400Z,9.50
2023-05-19T22:08:18.939Z,8.00
2023-05-19T22:10:49.906Z,5.50
2023-05-19T22:13:17.221Z,5.00
2023-05-19T22:15:44.377Z,8.25
2023-05-19T22:18:11.388Z,12.00
2023-05-19T22:20:38.368Z,6.50
2023-05-19T22:23:05.611Z,10.50
2023-05-19T22:25:33.978Z,9.50
2023-05-19T22:28:04.413Z,12.75
2023-05-19T22:30:31.884Z,9.00
2023-05-19T22:32:58.974Z,10.50
2023-05-19T22:35:26.224Z,11.25
2023-05-19T22:37:53.157Z,9.50
2023-05-19T22:40:20.002Z,9.50
2023-05-19T22:42:48.246Z,7.50
2023-05-19T22:45:42.042Z,10.50
2023-05-19T22:48:09.475Z,7.50
2023-05-19T22:50:36.550Z,8.00
2023-05-19T22:53:03.528Z,9.00
2023-05-19T22:55:30.429Z,7.75
2023-05-19T22:57:59.120Z,7.25
2023-05-19T23:00:26.105Z,7.50
2023-05-19T23:02:56.018Z,10.25
2023-05-19T23:05:23.325Z,9.50
2023-05-19T23:07:50.561Z,6.75
2023-05-19T23:10:42.943Z,6.25
2023-05-19T23:13:11.190Z,9.50
2023-05-19T23:15:38.375Z,9.50
2023-05-19T23:18:34.195Z,10.00
2023-05-19T23:21:01.098Z,12.75
2023-05-19T23:23:29.218Z,8.00
2023-05-19T23:26:27.892Z,8.00
2023-05-19T23:28:57.084Z,8.25
2023-05-19T23:31:24.175Z,9.00
2023-05-19T23:33:51.215Z,8.75
2023-05-19T23:36:18.322Z,10.00
2023-05-19T23:38:45.305Z,9.75
2023-05-19T23:41:12.244Z,12.00
2023-05-19T23:43:39.459Z,11.75
2023-05-19T23:46:08.206Z,11.00
2023-05-19T23:48:35.152Z,11.25
2023-05-19T23:51:02.199Z,11.33
2023-05-19T23:53:29.646Z,7.75
2023-05-19T23:55:58.666Z,10.00
2023-05-19T23:58:25.846Z,10.00
